sensor_id;sensor_type;location;lat;lon;timestamp;pressure;altitude;pressure_sealevel;temperature;humidity
62333;BME280;48624;49.812;8.562;2023-01-30T00:00:33;101300.53;;;-0.44;89.22
62333;BME280;48624;49.812;8.562;2023-01-30T00:02:59;101298.03;;;-0.53;89.42
62333;BME280;48624;49.812;8.562;2023-01-30T00:05:24;101301.50;;;-0.57;89.69
62333;BME280;48624;49.812;8.562;2023-01-30T00:07:49;101293.63;;;-0.46;89.36
62333;BME280;48624;49.812;8.562;2023-01-30T00:10:15;101281.53;;;-0.53;89.65
62333;BME280;48624;49.812;8.562;2023-01-30T00:12:40;101264.06;;;-0.39;89.50
62333;BME280;48624;49.812;8.562;2023-01-30T00:15:06;101264.97;;;-0.48;89.34
62333;BME280;48624;49.812;8.562;2023-01-30T00:17:32;101258.94;;;-0.47;89.39
62333;BME280;48624;49.812;8.562;2023-01-30T00:19:57;101260.56;;;-0.38;88.87
62333;BME280;48624;49.812;8.562;2023-01-30T00:22:23;101282.28;;;-0.39;89.04
62333;BME280;48624;49.812;8.562;2023-01-30T00:24:48;101292.44;;;-0.09;88.35
62333;BME280;48624;49.812;8.562;2023-01-30T00:27:13;101298.38;;;0.04;87.35
62333;BME280;48624;49.812;8.562;2023-01-30T00:29:39;101309.53;;;0.18;86.31
62333;BME280;48624;49.812;8.562;2023-01-30T00:32:04;101295.59;;;0.19;86.50
62333;BME280;48624;49.812;8.562;2023-01-30T00:34:30;101282.78;;;-0.01;87.42
62333;BME280;48624;49.812;8.562;2023-01-30T00:36:55;101274.13;;;-0.02;87.61
62333;BME280;48624;49.812;8.562;2023-01-30T00:39:20;101236.91;;;-0.13;87.89
62333;BME280;48624;49.812;8.562;2023-01-30T00:41:45;101231.66;;;-0.11;87.83
62333;BME280;48624;49.812;8.562;2023-01-30T00:44:29;101205.75;;;-0.22;87.75
62333;BME280;48624;49.812;8.562;2023-01-30T00:47:13;101196.16;;;-0.20;87.71
62333;BME280;48624;49.812;8.562;2023-01-30T00:49:39;101190.09;;;-0.21;88.17
62333;BME280;48624;49.812;8.562;2023-01-30T00:52:06;101197.06;;;-0.21;87.89
62333;BME280;48624;49.812;8.562;2023-01-30T00:54:32;101184.91;;;-0.24;87.57
62333;BME280;48624;49.812;8.562;2023-01-30T00:56:58;101191.06;;;-0.28;88.03
62333;BME280;48624;49.812;8.562;2023-01-30T00:59:23;101177.94;;;-0.20;87.82
62333;BME280;48624;49.812;8.562;2023-01-30T01:01:48;101178.78;;;-0.18;87.99
62333;BME280;48624;49.812;8.562;2023-01-30T01:04:14;101179.66;;;-0.21;87.97
62333;BME280;48624;49.812;8.562;2023-01-30T01:06:39;101170.22;;;-0.28;88.63
62333;BME280;48624;49.812;8.562;2023-01-30T01:09:05;101183.97;;;-0.17;88.48
62333;BME280;48624;49.812;8.562;2023-01-30T01:11:31;101168.47;;;-0.28;88.61
62333;BME280;48624;49.812;8.562;2023-01-30T01:13:58;101161.38;;;-0.15;87.74
62333;BME280;48624;49.812;8.562;2023-01-30T01:16:25;101178.00;;;-0.26;88.11
62333;BME280;48624;49.812;8.562;2023-01-30T01:18:51;101189.09;;;-0.07;87.64
62333;BME280;48624;49.812;8.562;2023-01-30T01:21:17;101188.19;;;-0.06;87.62
62333;BME280;48624;49.812;8.562;2023-01-30T01:23:42;101192.13;;;0.26;87.09
62333;BME280;48624;49.812;8.562;2023-01-30T01:26:08;101201.94;;;0.07;87.59
62333;BME280;48624;49.812;8.562;2023-01-30T01:28:33;101191.75;;;-0.15;87.87
62333;BME280;48624;49.812;8.562;2023-01-30T01:30:58;101192.41;;;0.03;87.50
62333;BME280;48624;49.812;8.562;2023-01-30T01:33:26;101213.22;;;0.07;87.92
62333;BME280;48624;49.812;8.562;2023-01-30T01:35:56;101202.91;;;-0.02;87.43
62333;BME280;48624;49.812;8.562;2023-01-30T01:38:21;101199.47;;;-0.06;87.91
62333;BME280;48624;49.812;8.562;2023-01-30T01:40:47;101187.25;;;-0.01;87.96
62333;BME280;48624;49.812;8.562;2023-01-30T01:43:32;101188.97;;;0.01;88.23
62333;BME280;48624;49.812;8.562;2023-01-30T01:46:02;101181.25;;;-0.07;88.16
62333;BME280;48624;49.812;8.562;2023-01-30T01:48:52;101182.72;;;0.16;87.81
62333;BME280;48624;49.812;8.562;2023-01-30T01:51:46;101173.44;;;-0.07;88.06
62333;BME280;48624;49.812;8.562;2023-01-30T01:54:25;101168.25;;;-0.07;88.77
62333;BME280;48624;49.812;8.562;2023-01-30T01:56:53;101173.50;;;-0.13;88.85
62333;BME280;48624;49.812;8.562;2023-01-30T01:59:41;101165.69;;;-0.12;88.85
62333;BME280;48624;49.812;8.562;2023-01-30T02:02:10;101160.22;;;0.08;88.70
62333;BME280;48624;49.812;8.562;2023-01-30T02:04:39;101155.13;;;0.01;88.89
62333;BME280;48624;49.812;8.562;2023-01-30T02:07:25;101157.72;;;-0.01;89.51
62333;BME280;48624;49.812;8.562;2023-01-30T02:09:53;101142.91;;;0.04;89.25
62333;BME280;48624;49.812;8.562;2023-01-30T02:12:19;101138.59;;;0.03;89.55
62333;BME280;48624;49.812;8.562;2023-01-30T02:14:44;101138.38;;;0.19;88.33
62333;BME280;48624;49.812;8.562;2023-01-30T02:17:10;101119.59;;;-0.05;90.12
62333;BME280;48624;49.812;8.562;2023-01-30T02:19:49;101103.75;;;0.10;89.56
62333;BME280;48624;49.812;8.562;2023-01-30T02:28:03;101088.41;;;-0.11;91.68
62333;BME280;48624;49.812;8.562;2023-01-30T02:41:26;101124.38;;;0.26;90.33
62333;BME280;48624;49.812;8.562;2023-01-30T02:49:03;101098.44;;;0.18;90.49
62333;BME280;48624;49.812;8.562;2023-01-30T02:51:33;101109.94;;;0.03;90.91
62333;BME280;48624;49.812;8.562;2023-01-30T02:54:00;101121.00;;;0.19;90.24
62333;BME280;48624;49.812;8.562;2023-01-30T02:56:25;101110.00;;;-0.02;90.59
62333;BME280;48624;49.812;8.562;2023-01-30T02:58:56;101105.56;;;0.04;90.48
62333;BME280;48624;49.812;8.562;2023-01-30T03:07:23;101108.16;;;0.04;91.05
62333;BME280;48624;49.812;8.562;2023-01-30T03:12:40;101099.50;;;0.03;91.35
62333;BME280;48624;49.812;8.562;2023-01-30T03:15:14;101103.75;;;0.10;91.27
62333;BME280;48624;49.812;8.562;2023-01-30T03:17:44;101106.31;;;0.13;90.61
62333;BME280;48624;49.812;8.562;2023-01-30T03:20:10;101106.44;;;0.03;91.01
62333;BME280;48624;49.812;8.562;2023-01-30T03:22:38;101107.28;;;0.05;90.63
62333;BME280;48624;49.812;8.562;2023-01-30T03:25:04;101109.69;;;0.22;90.46
62333;BME280;48624;49.812;8.562;2023-01-30T03:27:29;101112.66;;;-0.05;91.01
62333;BME280;48624;49.812;8.562;2023-01-30T03:29:54;101109.75;;;0.14;90.82
62333;BME280;48624;49.812;8.562;2023-01-30T03:32:20;101102.13;;;0.03;90.80
62333;BME280;48624;49.812;8.562;2023-01-30T03:34:45;101097.91;;;-0.07;91.27
62333;BME280;48624;49.812;8.562;2023-01-30T03:37:10;101096.72;;;0.14;90.45
62333;BME280;48624;49.812;8.562;2023-01-30T03:39:36;101085.41;;;0.17;90.83
62333;BME280;48624;49.812;8.562;2023-01-30T03:42:01;101093.84;;;0.33;90.61
62333;BME280;48624;49.812;8.562;2023-01-30T03:44:27;101094.06;;;0.20;90.32
62333;BME280;48624;49.812;8.562;2023-01-30T03:46:52;101107.97;;;0.19;90.74
62333;BME280;48624;49.812;8.562;2023-01-30T03:49:17;101098.44;;;0.17;90.23
62333;BME280;48624;49.812;8.562;2023-01-30T03:51:42;101095.06;;;0.08;90.62
62333;BME280;48624;49.812;8.562;2023-01-30T03:54:08;101094.06;;;0.19;90.44
62333;BME280;48624;49.812;8.562;2023-01-30T03:56:33;101077.72;;;0.07;90.06
62333;BME280;48624;49.812;8.562;2023-01-30T03:58:58;101067.41;;;0.01;90.28
62333;BME280;48624;49.812;8.562;2023-01-30T04:01:24;101073.47;;;0.03;90.99
62333;BME280;48624;49.812;8.562;2023-01-30T04:03:50;101067.28;;;0.09;90.52
62333;BME280;48624;49.812;8.562;2023-01-30T04:06:15;101067.38;;;0.03;90.56
62333;BME280;48624;49.812;8.562;2023-01-30T04:08:40;101072.31;;;0.21;89.73
62333;BME280;48624;49.812;8.562;2023-01-30T04:11:05;101064.75;;;0.06;90.44
62333;BME280;48624;49.812;8.562;2023-01-30T04:13:31;101081.91;;;0.18;90.00
62333;BME280;48624;49.812;8.562;2023-01-30T04:18:40;101061.28;;;0.04;91.30
62333;BME280;48624;49.812;8.562;2023-01-30T04:21:05;101047.34;;;0.06;92.15
62333;BME280;48624;49.812;8.562;2023-01-30T04:23:31;101032.69;;;-0.01;92.21
62333;BME280;48624;49.812;8.562;2023-01-30T04:25:56;101037.75;;;0.08;92.62
62333;BME280;48624;49.812;8.562;2023-01-30T04:28:21;101027.31;;;0.10;92.23
62333;BME280;48624;49.812;8.562;2023-01-30T04:30:47;101034.31;;;0.08;92.70
62333;BME280;48624;49.812;8.562;2023-01-30T04:33:12;101029.81;;;0.18;92.16
62333;BME280;48624;49.812;8.562;2023-01-30T04:35:37;101019.28;;;0.25;91.91
62333;BME280;48624;49.812;8.562;2023-01-30T04:38:04;101022.94;;;0.12;92.22
62333;BME280;48624;49.812;8.562;2023-01-30T04:40:29;101032.63;;;0.04;91.98
62333;BME280;48624;49.812;8.562;2023-01-30T04:42:54;101029.94;;;0.10;92.22
62333;BME280;48624;49.812;8.562;2023-01-30T04:45:19;101032.41;;;0.19;91.52
62333;BME280;48624;49.812;8.562;2023-01-30T04:47:45;101028.34;;;-0.01;92.41
62333;BME280;48624;49.812;8.562;2023-01-30T04:50:10;101023.06;;;0.03;92.31
62333;BME280;48624;49.812;8.562;2023-01-30T04:52:35;101016.09;;;0.06;92.40
62333;BME280;48624;49.812;8.562;2023-01-30T04:55:01;101013.59;;;0.00;92.67
62333;BME280;48624;49.812;8.562;2023-01-30T04:57:26;100992.69;;;0.02;92.41
62333;BME280;48624;49.812;8.562;2023-01-30T04:59:51;100977.88;;;0.05;92.18
62333;BME280;48624;49.812;8.562;2023-01-30T05:02:16;100981.28;;;0.10;92.65
62333;BME280;48624;49.812;8.562;2023-01-30T05:04:42;100988.38;;;0.01;92.14
62333;BME280;48624;49.812;8.562;2023-01-30T05:07:07;100981.78;;;-0.24;92.94
62333;BME280;48624;49.812;8.562;2023-01-30T05:09:32;100986.81;;;-0.11;92.67
62333;BME280;48624;49.812;8.562;2023-01-30T05:11:59;100965.88;;;-0.04;93.17
62333;BME280;48624;49.812;8.562;2023-01-30T05:14:24;100972.06;;;-0.12;93.71
62333;BME280;48624;49.812;8.562;2023-01-30T05:16:49;100958.97;;;-0.08;93.12
62333;BME280;48624;49.812;8.562;2023-01-30T05:19:15;100953.63;;;0.02;93.02
62333;BME280;48624;49.812;8.562;2023-01-30T05:21:40;100961.56;;;-0.06;93.00
62333;BME280;48624;49.812;8.562;2023-01-30T05:24:05;100963.06;;;0.09;92.98
62333;BME280;48624;49.812;8.562;2023-01-30T05:26:31;100967.31;;;0.15;91.95
62333;BME280;48624;49.812;8.562;2023-01-30T05:28:56;100965.94;;;-0.08;93.08
62333;BME280;48624;49.812;8.562;2023-01-30T05:31:22;100966.72;;;-0.02;92.90
62333;BME280;48624;49.812;8.562;2023-01-30T05:33:49;100968.56;;;-0.08;93.47
62333;BME280;48624;49.812;8.562;2023-01-30T05:36:17;100974.25;;;0.17;93.12
62333;BME280;48624;49.812;8.562;2023-01-30T05:38:43;100972.81;;;-0.03;93.89
62333;BME280;48624;49.812;8.562;2023-01-30T05:41:11;100969.31;;;-0.02;94.29
62333;BME280;48624;49.812;8.562;2023-01-30T05:43:36;100954.59;;;-0.06;95.00
62333;BME280;48624;49.812;8.562;2023-01-30T05:46:03;100960.41;;;0.12;94.59
62333;BME280;48624;49.812;8.562;2023-01-30T05:48:30;100943.88;;;0.15;93.87
62333;BME280;48624;49.812;8.562;2023-01-30T05:50:57;100928.38;;;0.07;94.84
62333;BME280;48624;49.812;8.562;2023-01-30T05:53:24;100925.50;;;0.22;94.02
62333;BME280;48624;49.812;8.562;2023-01-30T05:55:58;100913.22;;;0.29;93.25
62333;BME280;48624;49.812;8.562;2023-01-30T05:58:24;100925.34;;;0.32;93.71
62333;BME280;48624;49.812;8.562;2023-01-30T06:00:49;100906.00;;;0.45;93.19
62333;BME280;48624;49.812;8.562;2023-01-30T06:03:14;100894.53;;;0.54;92.08
62333;BME280;48624;49.812;8.562;2023-01-30T06:05:40;100894.44;;;0.59;92.16
62333;BME280;48624;49.812;8.562;2023-01-30T06:08:05;100904.22;;;0.47;93.03
62333;BME280;48624;49.812;8.562;2023-01-30T06:10:32;100915.38;;;0.54;93.03
62333;BME280;48624;49.812;8.562;2023-01-30T06:12:57;100916.53;;;0.37;92.98
62333;BME280;48624;49.812;8.562;2023-01-30T06:15:22;100912.13;;;0.41;93.20
62333;BME280;48624;49.812;8.562;2023-01-30T06:17:48;100908.69;;;0.39;93.19
62333;BME280;48624;49.812;8.562;2023-01-30T06:20:13;100897.94;;;0.56;93.18
62333;BME280;48624;49.812;8.562;2023-01-30T06:22:38;100896.66;;;0.32;93.42
62333;BME280;48624;49.812;8.562;2023-01-30T06:25:04;100905.13;;;0.45;93.30
62333;BME280;48624;49.812;8.562;2023-01-30T06:27:30;100902.22;;;0.62;92.68
62333;BME280;48624;49.812;8.562;2023-01-30T06:29:55;100913.00;;;0.41;93.16
62333;BME280;48624;49.812;8.562;2023-01-30T06:32:20;100911.25;;;0.42;93.40
62333;BME280;48624;49.812;8.562;2023-01-30T06:34:45;100924.84;;;0.60;92.35
62333;BME280;48624;49.812;8.562;2023-01-30T06:37:11;100916.13;;;0.61;92.66
62333;BME280;48624;49.812;8.562;2023-01-30T06:39:36;100930.09;;;0.58;92.84
62333;BME280;48624;49.812;8.562;2023-01-30T06:42:01;100933.44;;;0.66;92.60
62333;BME280;48624;49.812;8.562;2023-01-30T06:44:27;100936.31;;;0.51;93.07
62333;BME280;48624;49.812;8.562;2023-01-30T06:46:52;100921.97;;;0.74;91.99
62333;BME280;48624;49.812;8.562;2023-01-30T06:49:18;100924.56;;;0.74;92.29
62333;BME280;48624;49.812;8.562;2023-01-30T06:51:43;100926.72;;;0.51;93.02
62333;BME280;48624;49.812;8.562;2023-01-30T06:54:08;100926.25;;;0.76;92.63
62333;BME280;48624;49.812;8.562;2023-01-30T06:56:33;100923.13;;;0.59;92.86
62333;BME280;48624;49.812;8.562;2023-01-30T06:58:59;100914.09;;;0.77;92.96
62333;BME280;48624;49.812;8.562;2023-01-30T07:01:24;100944.03;;;0.57;92.86
62333;BME280;48624;49.812;8.562;2023-01-30T07:03:49;100943.00;;;0.64;93.06
62333;BME280;48624;49.812;8.562;2023-01-30T07:06:15;100940.44;;;0.63;93.46
62333;BME280;48624;49.812;8.562;2023-01-30T07:08:40;100954.88;;;0.79;93.04
62333;BME280;48624;49.812;8.562;2023-01-30T07:11:05;100945.56;;;0.67;93.48
62333;BME280;48624;49.812;8.562;2023-01-30T07:13:31;100949.00;;;0.69;93.67
62333;BME280;48624;49.812;8.562;2023-01-30T07:15:56;100924.97;;;0.52;93.57
62333;BME280;48624;49.812;8.562;2023-01-30T07:18:22;100929.88;;;0.69;93.73
62333;BME280;48624;49.812;8.562;2023-01-30T07:20:48;100929.06;;;0.65;93.47
62333;BME280;48624;49.812;8.562;2023-01-30T07:23:14;100941.50;;;0.51;93.85
62333;BME280;48624;49.812;8.562;2023-01-30T07:25:40;100952.72;;;0.56;93.81
62333;BME280;48624;49.812;8.562;2023-01-30T07:28:05;100959.38;;;0.71;93.84
62333;BME280;48624;49.812;8.562;2023-01-30T07:30:32;100977.78;;;0.65;93.86
62333;BME280;48624;49.812;8.562;2023-01-30T07:33:01;100982.69;;;0.80;92.79
62333;BME280;48624;49.812;8.562;2023-01-30T07:35:29;100981.22;;;0.67;93.30
62333;BME280;48624;49.812;8.562;2023-01-30T07:37:54;100962.78;;;0.76;92.83
62333;BME280;48624;49.812;8.562;2023-01-30T07:40:20;100961.88;;;0.77;92.96
62333;BME280;48624;49.812;8.562;2023-01-30T07:43:07;100975.22;;;0.62;93.82
62333;BME280;48624;49.812;8.562;2023-01-30T07:45:38;100979.31;;;0.75;94.08
62333;BME280;48624;49.812;8.562;2023-01-30T07:48:04;100970.72;;;0.70;93.71
62333;BME280;48624;49.812;8.562;2023-01-30T07:50:29;100972.31;;;0.79;93.70
62333;BME280;48624;49.812;8.562;2023-01-30T07:52:55;100976.72;;;0.74;93.94
62333;BME280;48624;49.812;8.562;2023-01-30T07:55:20;100976.81;;;0.71;93.44
62333;BME280;48624;49.812;8.562;2023-01-30T07:57:45;100981.91;;;0.77;94.10
62333;BME280;48624;49.812;8.562;2023-01-30T08:00:11;100985.50;;;0.69;94.11
62333;BME280;48624;49.812;8.562;2023-01-30T08:02:37;100982.81;;;0.74;94.32
62333;BME280;48624;49.812;8.562;2023-01-30T08:05:03;100982.00;;;0.71;94.47
62333;BME280;48624;49.812;8.562;2023-01-30T08:07:32;100984.47;;;0.80;94.32
62333;BME280;48624;49.812;8.562;2023-01-30T08:09:57;100967.03;;;0.82;94.18
62333;BME280;48624;49.812;8.562;2023-01-30T08:12:22;100977.63;;;0.73;94.44
62333;BME280;48624;49.812;8.562;2023-01-30T08:14:48;100979.38;;;0.72;94.69
62333;BME280;48624;49.812;8.562;2023-01-30T08:17:13;100970.69;;;0.72;95.35
62333;BME280;48624;49.812;8.562;2023-01-30T08:19:38;100962.19;;;0.62;95.80
62333;BME280;48624;49.812;8.562;2023-01-30T08:22:04;100953.41;;;0.66;95.86
62333;BME280;48624;49.812;8.562;2023-01-30T08:24:30;100954.16;;;0.73;95.63
62333;BME280;48624;49.812;8.562;2023-01-30T08:26:56;100961.88;;;0.79;95.11
62333;BME280;48624;49.812;8.562;2023-01-30T08:29:21;100954.97;;;0.76;95.59
62333;BME280;48624;49.812;8.562;2023-01-30T08:31:47;100954.22;;;0.68;96.12
62333;BME280;48624;49.812;8.562;2023-01-30T08:34:12;100959.38;;;0.73;96.17
62333;BME280;48624;49.812;8.562;2023-01-30T08:36:37;100952.25;;;0.82;96.09
62333;BME280;48624;49.812;8.562;2023-01-30T08:39:04;100944.59;;;0.72;96.64
62333;BME280;48624;49.812;8.562;2023-01-30T08:41:29;100962.78;;;0.76;96.31
62333;BME280;48624;49.812;8.562;2023-01-30T08:43:54;100969.88;;;0.69;97.52
62333;BME280;48624;49.812;8.562;2023-01-30T08:46:20;100964.72;;;0.66;97.53
62333;BME280;48624;49.812;8.562;2023-01-30T08:48:46;100963.78;;;0.69;97.68
62333;BME280;48624;49.812;8.562;2023-01-30T08:51:12;100966.28;;;0.74;97.96
62333;BME280;48624;49.812;8.562;2023-01-30T08:53:37;100969.06;;;0.66;98.19
62333;BME280;48624;49.812;8.562;2023-01-30T08:56:02;100962.03;;;0.69;97.73
62333;BME280;48624;49.812;8.562;2023-01-30T08:58:28;100947.03;;;0.81;98.02
62333;BME280;48624;49.812;8.562;2023-01-30T09:00:53;100925.47;;;0.73;98.31
62333;BME280;48624;49.812;8.562;2023-01-30T09:03:18;100923.66;;;0.76;98.96
62333;BME280;48624;49.812;8.562;2023-01-30T09:05:44;100919.72;;;0.99;97.77
62333;BME280;48624;49.812;8.562;2023-01-30T09:08:11;100911.69;;;1.10;97.51
62333;BME280;48624;49.812;8.562;2023-01-30T09:10:36;100924.56;;;1.18;97.02
62333;BME280;48624;49.812;8.562;2023-01-30T09:13:02;100918.50;;;1.17;96.55
62333;BME280;48624;49.812;8.562;2023-01-30T09:15:29;100913.81;;;1.32;96.46
62333;BME280;48624;49.812;8.562;2023-01-30T09:17:54;100914.66;;;1.34;95.98
62333;BME280;48624;49.812;8.562;2023-01-30T09:20:20;100895.28;;;1.44;95.70
62333;BME280;48624;49.812;8.562;2023-01-30T09:22:45;100902.22;;;1.45;95.01
62333;BME280;48624;49.812;8.562;2023-01-30T09:25:11;100908.63;;;1.71;93.87
62333;BME280;48624;49.812;8.562;2023-01-30T09:27:36;100910.03;;;1.83;93.22
62333;BME280;48624;49.812;8.562;2023-01-30T09:30:03;100899.03;;;2.06;92.02
62333;BME280;48624;49.812;8.562;2023-01-30T09:32:29;100903.59;;;1.98;92.61
62333;BME280;48624;49.812;8.562;2023-01-30T09:34:54;100910.25;;;1.75;93.54
62333;BME280;48624;49.812;8.562;2023-01-30T09:37:19;100927.53;;;1.79;92.90
62333;BME280;48624;49.812;8.562;2023-01-30T09:39:45;100924.09;;;1.79;93.45
62333;BME280;48624;49.812;8.562;2023-01-30T09:45:23;100906.59;;;1.83;93.09
62333;BME280;48624;49.812;8.562;2023-01-30T09:50:54;100907.38;;;1.86;92.36
62333;BME280;48624;49.812;8.562;2023-01-30T09:56:09;100900.94;;;2.34;90.17
62333;BME280;48624;49.812;8.562;2023-01-30T09:59:14;100910.94;;;2.18;91.64
62333;BME280;48624;49.812;8.562;2023-01-30T10:01:57;100914.19;;;2.28;91.21
62333;BME280;48624;49.812;8.562;2023-01-30T10:04:39;100903.22;;;2.14;91.33
62333;BME280;48624;49.812;8.562;2023-01-30T10:07:20;100893.78;;;2.08;92.18
62333;BME280;48624;49.812;8.562;2023-01-30T10:12:53;100884.75;;;2.53;90.04
62333;BME280;48624;49.812;8.562;2023-01-30T10:21:05;100899.16;;;2.68;89.88
62333;BME280;48624;49.812;8.562;2023-01-30T10:23:56;100886.72;;;2.76;89.74
62333;BME280;48624;49.812;8.562;2023-01-30T10:26:27;100890.25;;;2.75;89.63
62333;BME280;48624;49.812;8.562;2023-01-30T10:28:57;100896.25;;;2.79;90.56
62333;BME280;48624;49.812;8.562;2023-01-30T10:31:29;100886.09;;;2.68;90.49
62333;BME280;48624;49.812;8.562;2023-01-30T10:34:03;100892.88;;;2.75;91.21
62333;BME280;48624;49.812;8.562;2023-01-30T10:36:35;100886.47;;;2.86;91.11
62333;BME280;48624;49.812;8.562;2023-01-30T10:39:14;100867.38;;;2.82;90.75
62333;BME280;48624;49.812;8.562;2023-01-30T10:41:54;100882.81;;;3.22;90.34
62333;BME280;48624;49.812;8.562;2023-01-30T10:44:22;100865.53;;;3.16;90.45
62333;BME280;48624;49.812;8.562;2023-01-30T11:05:20;100863.72;;;3.75;87.66
62333;BME280;48624;49.812;8.562;2023-01-30T11:07:48;100858.06;;;4.13;85.99
62333;BME280;48624;49.812;8.562;2023-01-30T11:10:16;100864.03;;;4.18;86.19
62333;BME280;48624;49.812;8.562;2023-01-30T11:12:42;100861.56;;;4.13;85.70
62333;BME280;48624;49.812;8.562;2023-01-30T11:15:07;100857.00;;;4.19;85.57
62333;BME280;48624;49.812;8.562;2023-01-30T11:17:40;100853.41;;;4.21;85.48
62333;BME280;48624;49.812;8.562;2023-01-30T11:20:13;100847.94;;;4.53;84.93
62333;BME280;48624;49.812;8.562;2023-01-30T11:22:51;100847.56;;;4.13;84.84
62333;BME280;48624;49.812;8.562;2023-01-30T11:25:24;100847.88;;;3.78;87.49
62333;BME280;48624;49.812;8.562;2023-01-30T11:28:11;100854.66;;;4.11;86.20
62333;BME280;48624;49.812;8.562;2023-01-30T11:30:38;100850.03;;;4.18;86.14
62333;BME280;48624;49.812;8.562;2023-01-30T11:35:41;100835.28;;;3.88;87.13
62333;BME280;48624;49.812;8.562;2023-01-30T11:38:27;100831.53;;;4.22;86.16
62333;BME280;48624;49.812;8.562;2023-01-30T11:43:37;100831.53;;;4.22;86.36
62333;BME280;48624;49.812;8.562;2023-01-30T11:46:07;100840.47;;;4.16;86.43
62333;BME280;48624;49.812;8.562;2023-01-30T11:48:38;100841.38;;;4.15;86.38
62333;BME280;48624;49.812;8.562;2023-01-30T11:51:08;100854.34;;;4.20;87.19
62333;BME280;48624;49.812;8.562;2023-01-30T11:53:44;100863.16;;;4.18;87.69
62333;BME280;48624;49.812;8.562;2023-01-30T11:58:55;100867.09;;;4.55;86.35
62333;BME280;48624;49.812;8.562;2023-01-30T12:01:32;100870.84;;;4.48;86.85
62333;BME280;48624;49.812;8.562;2023-01-30T12:03:58;100863.56;;;4.56;86.73
62333;BME280;48624;49.812;8.562;2023-01-30T12:06:36;100863.34;;;4.62;87.38
62333;BME280;48624;49.812;8.562;2023-01-30T12:09:03;100876.47;;;4.62;87.68
62333;BME280;48624;49.812;8.562;2023-01-30T12:14:40;100866.16;;;4.81;85.87
62333;BME280;48624;49.812;8.562;2023-01-30T12:17:22;100867.31;;;5.20;85.17
62333;BME280;48624;49.812;8.562;2023-01-30T12:20:04;100863.28;;;5.11;84.92
62333;BME280;48624;49.812;8.562;2023-01-30T12:25:35;100862.06;;;5.20;84.82
62333;BME280;48624;49.812;8.562;2023-01-30T12:28:13;100858.00;;;5.11;83.98
62333;BME280;48624;49.812;8.562;2023-01-30T12:30:49;100853.03;;;5.50;83.13
62333;BME280;48624;49.812;8.562;2023-01-30T12:33:17;100853.19;;;5.00;85.17
62333;BME280;48624;49.812;8.562;2023-01-30T12:38:52;100840.69;;;5.07;85.67
62333;BME280;48624;49.812;8.562;2023-01-30T12:44:01;100827.94;;;5.43;84.94
62333;BME280;48624;49.812;8.562;2023-01-30T12:46:48;100815.25;;;5.52;84.31
62333;BME280;48624;49.812;8.562;2023-01-30T12:49:56;100815.03;;;5.79;81.46
62333;BME280;48624;49.812;8.562;2023-01-30T12:55:20;100820.53;;;5.73;81.82
62333;BME280;48624;49.812;8.562;2023-01-30T13:03:38;100829.50;;;5.90;81.97
62333;BME280;48624;49.812;8.562;2023-01-30T13:11:49;100843.38;;;5.50;84.12
62333;BME280;48624;49.812;8.562;2023-01-30T13:20:03;100830.13;;;5.31;84.43
62333;BME280;48624;49.812;8.562;2023-01-30T13:22:39;100828.28;;;5.55;83.92
62333;BME280;48624;49.812;8.562;2023-01-30T13:27:59;100839.28;;;5.43;84.24
62333;BME280;48624;49.812;8.562;2023-01-30T13:30:28;100834.97;;;5.63;84.04
62333;BME280;48624;49.812;8.562;2023-01-30T13:33:24;100850.25;;;5.32;84.15
62333;BME280;48624;49.812;8.562;2023-01-30T13:38:33;100845.22;;;5.26;84.20
62333;BME280;48624;49.812;8.562;2023-01-30T13:41:01;100846.81;;;5.08;85.40
62333;BME280;48624;49.812;8.562;2023-01-30T13:43:35;100856.22;;;4.90;85.85
62333;BME280;48624;49.812;8.562;2023-01-30T13:46:08;100851.06;;;5.10;85.34
62333;BME280;48624;49.812;8.562;2023-01-30T13:49:00;100855.75;;;5.02;85.31
62333;BME280;48624;49.812;8.562;2023-01-30T13:51:38;100865.84;;;5.13;84.99
62333;BME280;48624;49.812;8.562;2023-01-30T13:54:09;100871.63;;;4.99;86.56
62333;BME280;48624;49.812;8.562;2023-01-30T13:56:56;100858.41;;;5.24;85.91
62333;BME280;48624;49.812;8.562;2023-01-30T14:09:41;100883.78;;;4.78;87.36
62333;BME280;48624;49.812;8.562;2023-01-30T14:12:24;100885.38;;;4.82;86.94
62333;BME280;48624;49.812;8.562;2023-01-30T14:15:02;100885.31;;;4.83;87.00
62333;BME280;48624;49.812;8.562;2023-01-30T14:17:28;100875.34;;;4.44;89.04
62333;BME280;48624;49.812;8.562;2023-01-30T14:20:14;100872.19;;;4.83;87.11
62333;BME280;48624;49.812;8.562;2023-01-30T14:27:54;100864.78;;;4.71;89.03
62333;BME280;48624;49.812;8.562;2023-01-30T14:30:59;100875.09;;;4.52;90.54
62333;BME280;48624;49.812;8.562;2023-01-30T14:38:33;100875.31;;;4.46;91.27
62333;BME280;48624;49.812;8.562;2023-01-30T14:48:52;100898.31;;;4.37;91.47
62333;BME280;48624;49.812;8.562;2023-01-30T14:54:21;100928.63;;;4.71;91.37
62333;BME280;48624;49.812;8.562;2023-01-30T14:57:13;100921.66;;;4.45;92.35
62333;BME280;48624;49.812;8.562;2023-01-30T15:04:39;100951.44;;;4.69;91.71
62333;BME280;48624;49.812;8.562;2023-01-30T15:07:18;100974.00;;;4.75;91.98
62333;BME280;48624;49.812;8.562;2023-01-30T15:10:02;100989.84;;;4.72;91.56
62333;BME280;48624;49.812;8.562;2023-01-30T15:26:29;101022.28;;;4.44;96.36
62333;BME280;48624;49.812;8.562;2023-01-30T15:31:55;101021.50;;;4.67;95.97
62333;BME280;48624;49.812;8.562;2023-01-30T15:34:21;101021.22;;;4.50;97.17
62333;BME280;48624;49.812;8.562;2023-01-30T15:36:46;101024.84;;;4.72;97.31
62333;BME280;48624;49.812;8.562;2023-01-30T15:39:19;101017.16;;;4.66;96.03
62333;BME280;48624;49.812;8.562;2023-01-30T15:41:46;101018.03;;;4.67;96.36
62333;BME280;48624;49.812;8.562;2023-01-30T15:44:41;101019.16;;;4.60;96.99
62333;BME280;48624;49.812;8.562;2023-01-30T15:50:09;101025.75;;;4.71;96.24
62333;BME280;48624;49.812;8.562;2023-01-30T15:52:40;101033.41;;;4.78;95.84
62333;BME280;48624;49.812;8.562;2023-01-30T15:55:33;101032.00;;;4.93;95.58
62333;BME280;48624;49.812;8.562;2023-01-30T15:58:08;101036.59;;;4.88;95.39